createdAt,value
2022-09-13T00:03:59.671Z,95.00
2022-09-13T00:09:01.756Z,95.22
2022-09-13T00:14:03.908Z,95.49
2022-09-13T00:19:06.946Z,95.69
2022-09-13T00:24:08.576Z,95.45
2022-09-13T00:29:10.717Z,95.28
2022-09-13T00:34:13.888Z,95.37
2022-09-13T00:39:15.942Z,95.90
2022-09-13T00:44:52.748Z,96.26
2022-09-13T00:50:02.899Z,96.32
2022-09-13T00:55:11.579Z,96.48
2022-09-13T01:00:18.277Z,97.23
2022-09-13T01:05:27.083Z,96.86
2022-09-13T01:10:29.258Z,96.34
2022-09-13T01:15:31.266Z,96.10
2022-09-13T01:20:46.835Z,97.08
2022-09-13T01:26:16.665Z,96.77
2022-09-13T01:31:29.357Z,96.70
2022-09-13T01:36:58.416Z,96.82
2022-09-13T01:42:11.651Z,96.87
2022-09-13T01:47:25.818Z,97.54
2022-09-13T01:52:37.102Z,97.52
2022-09-13T01:57:44.360Z,97.37
2022-09-13T02:02:50.698Z,97.34
2022-09-13T02:07:59.687Z,97.28
2022-09-13T02:13:05.738Z,97.46
2022-09-13T02:18:12.636Z,97.68
2022-09-13T02:23:19.017Z,97.74
2022-09-13T02:28:27.820Z,97.92
2022-09-13T02:33:36.290Z,97.57
2022-09-13T02:38:44.943Z,97.94
2022-09-13T02:43:51.907Z,98.47
2022-09-13T02:49:01.335Z,98.44
2022-09-13T02:54:15.521Z,98.29
2022-09-13T02:59:20.667Z,98.12
2022-09-13T03:04:23.799Z,98.61
2022-09-13T03:09:26.015Z,98.51
2022-09-13T03:14:39.611Z,97.55
2022-09-13T03:20:01.599Z,98.05
2022-09-13T03:25:10.579Z,98.50
2022-09-13T03:30:14.673Z,98.42
2022-09-13T03:35:26.190Z,98.24
2022-09-13T03:40:39.787Z,98.74
2022-09-13T03:45:46.901Z,98.30
2022-09-13T03:50:50.916Z,98.52
2022-09-13T03:55:53.084Z,99.11
2022-09-13T04:00:55.075Z,98.68
2022-09-13T04:05:58.485Z,99.50
2022-09-13T04:11:01.053Z,99.78
2022-09-13T04:16:04.359Z,100.00
2022-09-13T04:21:08.970Z,99.94
2022-09-13T04:26:10.722Z,99.52
2022-09-13T04:31:12.389Z,99.38
2022-09-13T04:36:15.358Z,99.11
2022-09-13T04:41:17.088Z,99.03
2022-09-13T04:46:18.807Z,98.84
2022-09-13T04:51:21.874Z,98.27
2022-09-13T04:56:24.708Z,97.92
2022-09-13T05:01:28.070Z,97.50
2022-09-13T05:06:31.268Z,96.81
2022-09-13T05:11:33.585Z,96.50
2022-09-13T05:16:35.548Z,95.96
2022-09-13T05:21:38.547Z,95.52
2022-09-13T05:26:40.345Z,95.02
2022-09-13T05:31:43.773Z,94.39
2022-09-13T05:36:53.173Z,93.56
2022-09-13T05:41:56.366Z,94.41
2022-09-13T05:46:58.697Z,95.18
2022-09-13T05:52:02.112Z,96.27
2022-09-13T05:57:04.834Z,96.71
2022-09-13T06:02:06.874Z,97.40
2022-09-13T06:07:12.869Z,97.33
2022-09-13T06:12:14.743Z,97.26
2022-09-13T06:17:16.926Z,97.43
2022-09-13T06:22:19.863Z,96.67
2022-09-13T06:27:21.755Z,96.62
2022-09-13T06:32:23.460Z,95.63
2022-09-13T06:37:26.667Z,94.44
2022-09-13T06:42:28.329Z,93.47
2022-09-13T06:47:30.003Z,92.77
2022-09-13T06:52:33.018Z,91.96
2022-09-13T06:57:34.930Z,91.68
2022-09-13T07:02:36.614Z,92.19
2022-09-13T07:07:39.584Z,91.85
2022-09-13T07:12:41.621Z,91.76
2022-09-13T07:17:44.073Z,89.95
2022-09-13T07:22:47.175Z,90.27
2022-09-13T07:27:48.986Z,90.73
2022-09-13T07:32:51.143Z,89.48
2022-09-13T07:37:54.151Z,89.97
2022-09-13T07:42:56.166Z,90.00
2022-09-13T07:47:57.802Z,90.01
2022-09-13T07:53:00.797Z,88.75
2022-09-13T07:58:02.652Z,90.12
2022-09-13T08:03:04.722Z,90.04
2022-09-13T08:08:07.796Z,88.86
2022-09-13T08:13:09.424Z,88.69
2022-09-13T08:18:11.488Z,88.84
2022-09-13T08:23:15.143Z,88.57
2022-09-13T08:28:18.908Z,87.65
2022-09-13T08:33:20.577Z,87.40
2022-09-13T08:38:24.030Z,87.57
2022-09-13T08:43:37.853Z,82.88
2022-09-13T08:48:44.202Z,81.40
2022-09-13T08:53:49.398Z,79.24
2022-09-13T08:59:17.101Z,76.43
2022-09-13T09:04:33.177Z,77.93
2022-09-13T09:09:45.216Z,75.92
2022-09-13T09:14:58.956Z,71.49
2022-09-13T09:20:08.771Z,71.71
2022-09-13T09:25:12.334Z,71.66
2022-09-13T09:30:14.618Z,72.29
2022-09-13T09:35:29.355Z,67.01
2022-09-13T09:40:34.012Z,64.26
2022-09-13T09:45:40.300Z,67.31
2022-09-13T09:50:47.675Z,68.79
2022-09-13T09:55:55.888Z,66.87
2022-09-13T10:00:58.938Z,67.28
2022-09-13T10:06:06.538Z,68.70
2022-09-13T10:11:10.323Z,68.71
2022-09-13T10:16:25.901Z,64.82
2022-09-13T10:21:27.630Z,64.87
2022-09-13T10:26:33.768Z,63.24
2022-09-13T10:31:37.697Z,56.76
2022-09-13T10:36:52.630Z,60.73
2022-09-13T10:41:58.022Z,62.11
2022-09-13T10:47:03.570Z,65.36
2022-09-13T10:52:33.932Z,64.32
2022-09-13T10:57:37.866Z,66.78
2022-09-13T11:02:54.496Z,69.64
2022-09-13T11:08:32.081Z,73.34
2022-09-13T11:13:50.287Z,76.68
2022-09-13T11:19:08.529Z,80.15
2022-09-13T11:24:33.119Z,81.02
2022-09-13T11:30:01.468Z,84.35
2022-09-13T11:35:22.060Z,83.83
2022-09-13T11:40:46.835Z,86.74
2022-09-13T11:46:00.889Z,87.60
2022-09-13T11:51:10.833Z,86.34
2022-09-13T11:56:19.992Z,86.17
2022-09-13T12:01:28.286Z,87.11
2022-09-13T12:06:34.309Z,87.54
2022-09-13T12:11:38.784Z,85.06
2022-09-13T12:16:46.099Z,84.12
2022-09-13T12:21:49.711Z,83.37
2022-09-13T12:26:59.211Z,81.04
2022-09-13T12:32:05.750Z,82.20
2022-09-13T12:37:19.176Z,81.89
2022-09-13T12:42:40.902Z,79.48
2022-09-13T12:47:59.396Z,77.95
2022-09-13T12:53:09.745Z,76.91
2022-09-13T12:58:34.646Z,75.85
2022-09-13T13:03:48.646Z,75.99
2022-09-13T13:08:53.302Z,75.02
2022-09-13T13:13:57.280Z,74.65
2022-09-13T13:19:01.888Z,74.02
2022-09-13T13:24:36.967Z,73.38
2022-09-13T13:29:38.956Z,74.02
2022-09-13T13:34:45.125Z,72.18
2022-09-13T13:39:49.013Z,67.22
2022-09-13T13:45:19.882Z,69.05
2022-09-13T13:50:23.266Z,69.08
2022-09-13T13:55:40.562Z,69.68
2022-09-13T14:00:48.531Z,71.18
2022-09-13T14:05:57.725Z,71.24
2022-09-13T14:11:08.488Z,71.47
2022-09-13T14:16:23.879Z,72.33
2022-09-13T14:21:31.234Z,73.05
2022-09-13T14:26:32.928Z,75.23
2022-09-13T14:31:37.889Z,74.42
2022-09-13T14:36:51.822Z,73.50
2022-09-13T14:42:01.969Z,72.80
2022-09-13T14:47:12.726Z,72.03
2022-09-13T14:52:23.840Z,73.64
2022-09-13T14:57:28.946Z,72.68
2022-09-13T15:02:36.100Z,72.76
2022-09-13T15:07:41.111Z,73.11
2022-09-13T15:12:50.776Z,74.00
2022-09-13T15:17:55.441Z,75.95
2022-09-13T15:22:58.589Z,76.34
2022-09-13T15:28:00.689Z,75.32
2022-09-13T15:33:14.051Z,76.26
2022-09-13T15:38:23.633Z,76.06
2022-09-13T15:43:25.269Z,75.56
2022-09-13T15:48:30.114Z,75.51
2022-09-13T15:53:33.220Z,78.23
2022-09-13T15:58:36.038Z,78.09
2022-09-13T16:03:37.705Z,79.67
2022-09-13T16:08:41.487Z,79.86
2022-09-13T16:13:43.378Z,80.67
2022-09-13T16:18:45.363Z,80.93
2022-09-13T16:23:48.849Z,81.64
2022-09-13T16:28:52.451Z,82.01
2022-09-13T16:33:55.743Z,82.71
2022-09-13T16:38:59.886Z,82.40
2022-09-13T16:44:02.867Z,83.08
2022-09-13T16:49:05.693Z,83.21
2022-09-13T16:54:12.721Z,83.47
2022-09-13T16:59:15.707Z,82.42
2022-09-13T17:04:18.237Z,83.97
2022-09-13T17:09:21.760Z,83.79
2022-09-13T17:14:24.972Z,84.34
2022-09-13T17:19:29.858Z,85.27
2022-09-13T17:24:34.592Z,86.24
2022-09-13T17:29:37.235Z,86.88
2022-09-13T17:34:39.202Z,87.99
2022-09-13T17:39:42.305Z,88.85
2022-09-13T17:44:44.351Z,89.27
2022-09-13T17:49:46.306Z,90.17
2022-09-13T17:54:49.502Z,90.64
2022-09-13T17:59:51.555Z,91.05
2022-09-13T18:04:54.156Z,91.69
2022-09-13T18:09:57.218Z,92.38
2022-09-13T18:14:59.190Z,92.37
2022-09-13T18:20:01.038Z,93.07
2022-09-13T18:25:05.310Z,93.27
2022-09-13T18:30:08.224Z,93.69
2022-09-13T18:35:10.223Z,94.29
2022-09-13T18:40:13.614Z,95.36
2022-09-13T18:45:16.016Z,95.29
2022-09-13T18:50:20.138Z,95.73
2022-09-13T18:55:24.506Z,95.70
2022-09-13T19:00:29.379Z,95.82
2022-09-13T19:05:35.676Z,96.17
2022-09-13T19:10:39.259Z,96.79
2022-09-13T19:15:41.708Z,97.22
2022-09-13T19:20:44.943Z,97.09
2022-09-13T19:25:49.262Z,97.85
2022-09-13T19:30:51.734Z,97.94
2022-09-13T19:36:01.030Z,98.61
2022-09-13T19:41:07.060Z,99.27
2022-09-13T19:46:11.689Z,98.79
2022-09-13T19:51:16.738Z,98.68
2022-09-13T19:56:22.402Z,98.96
2022-09-13T20:01:28.371Z,99.29
2022-09-13T20:06:35.535Z,99.66
2022-09-13T20:11:42.497Z,100.00
2022-09-13T20:16:45.038Z,99.90
2022-09-13T20:21:48.667Z,99.99
2022-09-13T20:26:52.175Z,100.00
2022-09-13T20:31:54.790Z,100.00
2022-09-13T20:36:56.567Z,100.00
2022-09-13T20:41:59.751Z,100.00
2022-09-13T20:47:01.969Z,100.00
2022-09-13T20:52:03.984Z,100.00
2022-09-13T20:57:15.203Z,100.00
2022-09-13T21:02:17.489Z,100.00
2022-09-13T21:07:19.920Z,100.00
2022-09-13T21:12:23.869Z,100.00
2022-09-13T21:17:26.406Z,100.00
2022-09-13T21:22:28.147Z,100.00
2022-09-13T21:27:31.594Z,100.00
2022-09-13T21:32:33.429Z,100.00
2022-09-13T21:37:38.815Z,100.00
2022-09-13T21:42:41.818Z,100.00
2022-09-13T21:47:44.480Z,100.00
2022-09-13T21:52:46.545Z,100.00
2022-09-13T21:57:49.846Z,100.00
2022-09-13T22:02:51.882Z,100.00
2022-09-13T22:07:53.833Z,100.00
2022-09-13T22:12:57.171Z,100.00
2022-09-13T22:17:59.344Z,100.00
2022-09-13T22:23:01.386Z,100.00
2022-09-13T22:28:04.395Z,100.00
2022-09-13T22:33:06.163Z,100.00
2022-09-13T22:38:07.816Z,100.00
2022-09-13T22:43:11.201Z,100.00
2022-09-13T22:48:13.155Z,100.00
2022-09-13T22:53:15.438Z,100.00
2022-09-13T22:58:18.866Z,100.00
2022-09-13T23:03:20.939Z,100.00
2022-09-13T23:08:23.514Z,100.00
2022-09-13T23:13:27.123Z,100.00
2022-09-13T23:18:30.740Z,100.00
2022-09-13T23:23:32.604Z,100.00
2022-09-13T23:28:36.400Z,100.00
2022-09-13T23:33:40.334Z,100.00
2022-09-13T23:38:46.995Z,100.00
2022-09-13T23:43:50.285Z,100.00
2022-09-13T23:48:52.357Z,100.00
2022-09-13T23:53:57.115Z,100.00
2022-09-13T23:59:01.991Z,100.00
